sensor_id;sensor_type;location;lat;lon;timestamp;P1;durP1;ratioP1;P2;durP2;ratioP2
60722;SDS011;46574;52.818;6.516;2023-05-16T00:00:04;12.88;;;3.75;;
60722;SDS011;46574;52.818;6.516;2023-05-16T00:02:33;11.07;;;3.92;;
60722;SDS011;46574;52.818;6.516;2023-05-16T00:05:00;11.95;;;3.17;;
60722;SDS011;46574;52.818;6.516;2023-05-16T00:07:25;12.48;;;4.10;;
60722;SDS011;46574;52.818;6.516;2023-05-16T00:09:51;12.93;;;3.85;;
60722;SDS011;46574;52.818;6.516;2023-05-16T00:12:17;8.77;;;3.03;;
60722;SDS011;46574;52.818;6.516;2023-05-16T00:14:43;10.50;;;3.25;;
60722;SDS011;46574;52.818;6.516;2023-05-16T00:17:09;11.38;;;2.92;;
60722;SDS011;46574;52.818;6.516;2023-05-16T00:19:38;9.65;;;2.92;;
60722;SDS011;46574;52.818;6.516;2023-05-16T00:22:06;11.57;;;3.38;;
60722;SDS011;46574;52.818;6.516;2023-05-16T00:24:32;10.75;;;3.38;;
60722;SDS011;46574;52.818;6.516;2023-05-16T00:26:58;11.20;;;2.80;;
60722;SDS011;46574;52.818;6.516;2023-05-16T00:29:24;9.55;;;3.08;;
60722;SDS011;46574;52.818;6.516;2023-05-16T00:31:50;15.25;;;3.38;;
60722;SDS011;46574;52.818;6.516;2023-05-16T00:34:16;9.68;;;3.08;;
60722;SDS011;46574;52.818;6.516;2023-05-16T00:36:42;10.00;;;2.85;;
60722;SDS011;46574;52.818;6.516;2023-05-16T00:39:07;9.13;;;2.40;;
60722;SDS011;46574;52.818;6.516;2023-05-16T00:41:35;14.32;;;3.30;;
60722;SDS011;46574;52.818;6.516;2023-05-16T00:44:01;10.82;;;3.25;;
60722;SDS011;46574;52.818;6.516;2023-05-16T00:46:26;9.77;;;2.95;;
60722;SDS011;46574;52.818;6.516;2023-05-16T00:48:52;10.50;;;3.13;;
60722;SDS011;46574;52.818;6.516;2023-05-16T00:51:18;10.00;;;2.97;;
60722;SDS011;46574;52.818;6.516;2023-05-16T00:53:44;9.98;;;3.45;;
60722;SDS011;46574;52.818;6.516;2023-05-16T00:56:10;12.55;;;3.60;;
60722;SDS011;46574;52.818;6.516;2023-05-16T00:58:35;10.10;;;2.60;;
60722;SDS011;46574;52.818;6.516;2023-05-16T01:01:02;9.75;;;2.97;;
60722;SDS011;46574;52.818;6.516;2023-05-16T01:03:28;8.80;;;3.00;;
60722;SDS011;46574;52.818;6.516;2023-05-16T01:05:54;12.60;;;3.05;;
60722;SDS011;46574;52.818;6.516;2023-05-16T01:08:21;10.48;;;3.03;;
60722;SDS011;46574;52.818;6.516;2023-05-16T01:11:07;10.25;;;3.15;;
60722;SDS011;46574;52.818;6.516;2023-05-16T01:16:32;12.02;;;3.20;;
60722;SDS011;46574;52.818;6.516;2023-05-16T01:22:19;8.60;;;3.20;;
60722;SDS011;46574;52.818;6.516;2023-05-16T01:25:16;7.85;;;2.85;;
60722;SDS011;46574;52.818;6.516;2023-05-16T01:28:02;11.38;;;2.63;;
60722;SDS011;46574;52.818;6.516;2023-05-16T01:30:37;7.95;;;2.85;;
60722;SDS011;46574;52.818;6.516;2023-05-16T01:33:04;12.52;;;2.30;;
60722;SDS011;46574;52.818;6.516;2023-05-16T01:35:30;10.48;;;2.50;;
60722;SDS011;46574;52.818;6.516;2023-05-16T01:40:47;6.82;;;2.05;;
60722;SDS011;46574;52.818;6.516;2023-05-16T01:43:36;11.48;;;2.42;;
60722;SDS011;46574;52.818;6.516;2023-05-16T01:46:09;12.63;;;2.88;;
60722;SDS011;46574;52.818;6.516;2023-05-16T01:48:40;9.88;;;2.78;;
60722;SDS011;46574;52.818;6.516;2023-05-16T01:51:15;9.43;;;2.80;;
60722;SDS011;46574;52.818;6.516;2023-05-16T01:53:42;12.20;;;2.60;;
60722;SDS011;46574;52.818;6.516;2023-05-16T01:56:10;11.30;;;3.30;;
60722;SDS011;46574;52.818;6.516;2023-05-16T01:58:40;5.47;;;2.20;;
60722;SDS011;46574;52.818;6.516;2023-05-16T02:01:06;7.78;;;2.20;;
60722;SDS011;46574;52.818;6.516;2023-05-16T02:03:32;8.30;;;2.45;;
60722;SDS011;46574;52.818;6.516;2023-05-16T02:05:58;10.10;;;2.60;;
60722;SDS011;46574;52.818;6.516;2023-05-16T02:08:24;8.20;;;2.20;;
60722;SDS011;46574;52.818;6.516;2023-05-16T02:10:52;9.93;;;2.53;;
60722;SDS011;46574;52.818;6.516;2023-05-16T02:13:18;8.88;;;2.30;;
60722;SDS011;46574;52.818;6.516;2023-05-16T02:15:43;11.07;;;2.40;;
60722;SDS011;46574;52.818;6.516;2023-05-16T02:18:09;11.20;;;2.60;;
60722;SDS011;46574;52.818;6.516;2023-05-16T02:20:36;8.02;;;2.63;;
60722;SDS011;46574;52.818;6.516;2023-05-16T02:23:02;9.15;;;2.42;;
60722;SDS011;46574;52.818;6.516;2023-05-16T02:25:28;7.38;;;1.98;;
60722;SDS011;46574;52.818;6.516;2023-05-16T02:27:53;9.10;;;2.35;;
60722;SDS011;46574;52.818;6.516;2023-05-16T02:30:20;12.40;;;2.50;;
60722;SDS011;46574;52.818;6.516;2023-05-16T02:32:46;7.50;;;1.88;;
60722;SDS011;46574;52.818;6.516;2023-05-16T02:35:13;6.43;;;2.00;;
60722;SDS011;46574;52.818;6.516;2023-05-16T02:37:39;8.60;;;2.55;;
60722;SDS011;46574;52.818;6.516;2023-05-16T02:40:06;9.82;;;2.10;;
60722;SDS011;46574;52.818;6.516;2023-05-16T02:42:33;11.85;;;2.63;;
60722;SDS011;46574;52.818;6.516;2023-05-16T02:44:58;7.75;;;2.15;;
60722;SDS011;46574;52.818;6.516;2023-05-16T02:47:24;10.45;;;2.40;;
60722;SDS011;46574;52.818;6.516;2023-05-16T02:49:50;10.07;;;2.63;;
60722;SDS011;46574;52.818;6.516;2023-05-16T02:52:16;5.40;;;2.30;;
60722;SDS011;46574;52.818;6.516;2023-05-16T02:54:43;9.82;;;2.60;;
60722;SDS011;46574;52.818;6.516;2023-05-16T02:57:08;12.70;;;3.17;;
60722;SDS011;46574;52.818;6.516;2023-05-16T02:59:34;7.72;;;2.97;;
60722;SDS011;46574;52.818;6.516;2023-05-16T03:02:00;8.15;;;2.28;;
60722;SDS011;46574;52.818;6.516;2023-05-16T03:04:26;11.32;;;2.88;;
60722;SDS011;46574;52.818;6.516;2023-05-16T03:06:52;9.35;;;2.50;;
60722;SDS011;46574;52.818;6.516;2023-05-16T03:09:17;7.68;;;2.78;;
60722;SDS011;46574;52.818;6.516;2023-05-16T03:11:44;5.63;;;2.40;;
60722;SDS011;46574;52.818;6.516;2023-05-16T03:14:10;9.43;;;2.30;;
60722;SDS011;46574;52.818;6.516;2023-05-16T03:16:36;9.23;;;2.47;;
60722;SDS011;46574;52.818;6.516;2023-05-16T03:19:02;15.25;;;2.80;;
60722;SDS011;46574;52.818;6.516;2023-05-16T03:21:28;9.07;;;2.25;;
60722;SDS011;46574;52.818;6.516;2023-05-16T03:23:55;7.47;;;2.50;;
60722;SDS011;46574;52.818;6.516;2023-05-16T03:26:22;9.77;;;2.70;;
60722;SDS011;46574;52.818;6.516;2023-05-16T03:28:48;10.80;;;2.55;;
60722;SDS011;46574;52.818;6.516;2023-05-16T03:31:15;9.93;;;2.95;;
60722;SDS011;46574;52.818;6.516;2023-05-16T03:33:41;9.07;;;2.58;;
60722;SDS011;46574;52.818;6.516;2023-05-16T03:36:07;8.55;;;2.22;;
60722;SDS011;46574;52.818;6.516;2023-05-16T03:38:34;9.48;;;2.22;;
60722;SDS011;46574;52.818;6.516;2023-05-16T03:41:00;8.68;;;2.60;;
60722;SDS011;46574;52.818;6.516;2023-05-16T03:43:25;10.75;;;3.08;;
60722;SDS011;46574;52.818;6.516;2023-05-16T03:45:51;9.77;;;2.78;;
60722;SDS011;46574;52.818;6.516;2023-05-16T03:48:17;10.20;;;3.05;;
60722;SDS011;46574;52.818;6.516;2023-05-16T03:50:42;10.77;;;3.15;;
60722;SDS011;46574;52.818;6.516;2023-05-16T03:53:08;8.45;;;2.78;;
60722;SDS011;46574;52.818;6.516;2023-05-16T03:55:34;12.55;;;3.08;;
60722;SDS011;46574;52.818;6.516;2023-05-16T03:58:00;9.95;;;2.70;;
60722;SDS011;46574;52.818;6.516;2023-05-16T04:00:26;14.60;;;3.40;;
60722;SDS011;46574;52.818;6.516;2023-05-16T04:02:52;10.90;;;3.00;;
60722;SDS011;46574;52.818;6.516;2023-05-16T04:05:17;8.82;;;2.47;;
60722;SDS011;46574;52.818;6.516;2023-05-16T04:07:43;8.10;;;2.80;;
60722;SDS011;46574;52.818;6.516;2023-05-16T04:10:09;9.60;;;2.50;;
60722;SDS011;46574;52.818;6.516;2023-05-16T04:12:35;9.57;;;2.72;;
60722;SDS011;46574;52.818;6.516;2023-05-16T04:15:01;9.60;;;2.70;;
60722;SDS011;46574;52.818;6.516;2023-05-16T04:17:28;7.38;;;2.60;;
60722;SDS011;46574;52.818;6.516;2023-05-16T04:19:53;10.02;;;3.15;;
60722;SDS011;46574;52.818;6.516;2023-05-16T04:22:23;8.50;;;3.30;;
60722;SDS011;46574;52.818;6.516;2023-05-16T04:24:48;7.35;;;3.17;;
60722;SDS011;46574;52.818;6.516;2023-05-16T04:27:14;9.05;;;3.05;;
60722;SDS011;46574;52.818;6.516;2023-05-16T04:29:40;11.43;;;3.00;;
60722;SDS011;46574;52.818;6.516;2023-05-16T04:32:06;9.40;;;2.90;;
60722;SDS011;46574;52.818;6.516;2023-05-16T04:34:32;6.18;;;2.92;;
60722;SDS011;46574;52.818;6.516;2023-05-16T04:37:01;10.27;;;3.25;;
60722;SDS011;46574;52.818;6.516;2023-05-16T04:39:29;9.30;;;2.90;;
60722;SDS011;46574;52.818;6.516;2023-05-16T04:41:56;9.98;;;3.22;;
60722;SDS011;46574;52.818;6.516;2023-05-16T04:46:51;9.02;;;2.50;;
60722;SDS011;46574;52.818;6.516;2023-05-16T04:49:17;10.52;;;3.03;;
60722;SDS011;46574;52.818;6.516;2023-05-16T04:54:12;9.75;;;2.70;;
60722;SDS011;46574;52.818;6.516;2023-05-16T04:56:38;8.43;;;2.70;;
60722;SDS011;46574;52.818;6.516;2023-05-16T04:59:03;9.27;;;2.67;;
60722;SDS011;46574;52.818;6.516;2023-05-16T05:01:29;5.90;;;2.50;;
60722;SDS011;46574;52.818;6.516;2023-05-16T05:03:55;9.73;;;2.60;;
60722;SDS011;46574;52.818;6.516;2023-05-16T05:06:20;10.50;;;2.60;;
60722;SDS011;46574;52.818;6.516;2023-05-16T05:08:46;10.63;;;2.72;;
60722;SDS011;46574;52.818;6.516;2023-05-16T05:11:12;9.18;;;2.92;;
60722;SDS011;46574;52.818;6.516;2023-05-16T05:13:38;8.07;;;2.70;;
60722;SDS011;46574;52.818;6.516;2023-05-16T05:16:04;8.80;;;2.20;;
60722;SDS011;46574;52.818;6.516;2023-05-16T05:18:30;7.45;;;2.40;;
60722;SDS011;46574;52.818;6.516;2023-05-16T05:20:56;8.15;;;2.50;;
60722;SDS011;46574;52.818;6.516;2023-05-16T05:23:22;8.70;;;2.42;;
60722;SDS011;46574;52.818;6.516;2023-05-16T05:25:48;10.40;;;2.47;;
60722;SDS011;46574;52.818;6.516;2023-05-16T05:28:14;12.10;;;2.75;;
60722;SDS011;46574;52.818;6.516;2023-05-16T05:30:40;7.75;;;2.33;;
60722;SDS011;46574;52.818;6.516;2023-05-16T05:33:06;8.50;;;2.70;;
60722;SDS011;46574;52.818;6.516;2023-05-16T05:35:31;8.32;;;1.95;;
60722;SDS011;46574;52.818;6.516;2023-05-16T05:37:57;7.40;;;2.30;;
60722;SDS011;46574;52.818;6.516;2023-05-16T05:40:22;7.40;;;2.20;;
60722;SDS011;46574;52.818;6.516;2023-05-16T05:42:48;9.82;;;2.53;;
60722;SDS011;46574;52.818;6.516;2023-05-16T05:45:14;8.63;;;2.60;;
60722;SDS011;46574;52.818;6.516;2023-05-16T05:47:40;7.60;;;2.17;;
60722;SDS011;46574;52.818;6.516;2023-05-16T05:50:06;8.30;;;2.75;;
60722;SDS011;46574;52.818;6.516;2023-05-16T05:52:33;7.43;;;1.88;;
60722;SDS011;46574;52.818;6.516;2023-05-16T05:54:58;8.23;;;2.30;;
60722;SDS011;46574;52.818;6.516;2023-05-16T05:57:24;8.48;;;2.13;;
60722;SDS011;46574;52.818;6.516;2023-05-16T05:59:50;7.82;;;2.25;;
60722;SDS011;46574;52.818;6.516;2023-05-16T06:02:16;9.73;;;2.40;;
60722;SDS011;46574;52.818;6.516;2023-05-16T06:04:41;6.57;;;1.80;;
60722;SDS011;46574;52.818;6.516;2023-05-16T06:07:09;6.28;;;1.80;;
60722;SDS011;46574;52.818;6.516;2023-05-16T06:09:34;7.57;;;3.22;;
60722;SDS011;46574;52.818;6.516;2023-05-16T06:12:00;7.50;;;2.65;;
60722;SDS011;46574;52.818;6.516;2023-05-16T06:14:26;7.93;;;2.30;;
60722;SDS011;46574;52.818;6.516;2023-05-16T06:16:51;7.25;;;2.50;;
60722;SDS011;46574;52.818;6.516;2023-05-16T06:19:17;7.80;;;2.33;;
60722;SDS011;46574;52.818;6.516;2023-05-16T06:21:43;4.95;;;2.10;;
60722;SDS011;46574;52.818;6.516;2023-05-16T06:24:08;7.40;;;2.05;;
60722;SDS011;46574;52.818;6.516;2023-05-16T06:26:36;9.55;;;2.47;;
60722;SDS011;46574;52.818;6.516;2023-05-16T06:29:01;6.95;;;2.17;;
60722;SDS011;46574;52.818;6.516;2023-05-16T06:31:27;7.03;;;1.90;;
60722;SDS011;46574;52.818;6.516;2023-05-16T06:33:53;5.68;;;1.95;;
60722;SDS011;46574;52.818;6.516;2023-05-16T06:36:18;5.95;;;1.90;;
60722;SDS011;46574;52.818;6.516;2023-05-16T06:38:44;7.35;;;2.10;;
60722;SDS011;46574;52.818;6.516;2023-05-16T06:41:10;5.50;;;2.20;;
60722;SDS011;46574;52.818;6.516;2023-05-16T06:43:35;5.18;;;1.90;;
60722;SDS011;46574;52.818;6.516;2023-05-16T06:46:01;3.88;;;1.40;;
60722;SDS011;46574;52.818;6.516;2023-05-16T06:48:27;5.05;;;1.50;;
60722;SDS011;46574;52.818;6.516;2023-05-16T06:50:54;7.05;;;1.77;;
60722;SDS011;46574;52.818;6.516;2023-05-16T06:53:19;5.57;;;1.50;;
60722;SDS011;46574;52.818;6.516;2023-05-16T06:55:45;7.40;;;2.17;;
60722;SDS011;46574;52.818;6.516;2023-05-16T06:58:11;7.00;;;1.70;;
60722;SDS011;46574;52.818;6.516;2023-05-16T07:00:37;7.28;;;2.15;;
60722;SDS011;46574;52.818;6.516;2023-05-16T07:03:03;4.93;;;1.33;;
60722;SDS011;46574;52.818;6.516;2023-05-16T07:05:29;5.80;;;1.45;;
60722;SDS011;46574;52.818;6.516;2023-05-16T07:07:54;5.95;;;1.60;;
60722;SDS011;46574;52.818;6.516;2023-05-16T07:10:20;5.47;;;1.27;;
60722;SDS011;46574;52.818;6.516;2023-05-16T07:12:46;2.97;;;1.10;;
60722;SDS011;46574;52.818;6.516;2023-05-16T07:15:12;2.55;;;1.10;;
60722;SDS011;46574;52.818;6.516;2023-05-16T07:17:38;6.80;;;2.45;;
60722;SDS011;46574;52.818;6.516;2023-05-16T07:20:05;6.13;;;1.10;;
60722;SDS011;46574;52.818;6.516;2023-05-16T07:22:32;6.68;;;1.30;;
60722;SDS011;46574;52.818;6.516;2023-05-16T07:24:57;3.95;;;1.13;;
60722;SDS011;46574;52.818;6.516;2023-05-16T07:27:25;4.20;;;1.45;;
60722;SDS011;46574;52.818;6.516;2023-05-16T07:29:51;4.03;;;1.10;;
60722;SDS011;46574;52.818;6.516;2023-05-16T07:32:17;4.25;;;1.40;;
60722;SDS011;46574;52.818;6.516;2023-05-16T07:34:43;5.00;;;1.33;;
60722;SDS011;46574;52.818;6.516;2023-05-16T07:37:08;4.20;;;1.33;;
60722;SDS011;46574;52.818;6.516;2023-05-16T07:39:37;3.50;;;1.03;;
60722;SDS011;46574;52.818;6.516;2023-05-16T07:42:05;4.25;;;1.55;;
60722;SDS011;46574;52.818;6.516;2023-05-16T07:44:31;6.43;;;1.50;;
60722;SDS011;46574;52.818;6.516;2023-05-16T07:46:57;6.05;;;1.48;;
60722;SDS011;46574;52.818;6.516;2023-05-16T07:49:23;4.30;;;1.50;;
60722;SDS011;46574;52.818;6.516;2023-05-16T07:51:48;3.95;;;1.02;;
60722;SDS011;46574;52.818;6.516;2023-05-16T07:54:14;5.32;;;1.10;;
60722;SDS011;46574;52.818;6.516;2023-05-16T07:56:40;2.13;;;0.88;;
60722;SDS011;46574;52.818;6.516;2023-05-16T07:59:06;2.17;;;0.70;;
60722;SDS011;46574;52.818;6.516;2023-05-16T08:01:31;3.28;;;0.80;;
60722;SDS011;46574;52.818;6.516;2023-05-16T08:03:57;1.33;;;0.68;;
60722;SDS011;46574;52.818;6.516;2023-05-16T08:06:23;3.33;;;0.82;;
60722;SDS011;46574;52.818;6.516;2023-05-16T08:08:49;3.22;;;1.10;;
60722;SDS011;46574;52.818;6.516;2023-05-16T08:11:15;3.05;;;1.45;;
60722;SDS011;46574;52.818;6.516;2023-05-16T08:13:40;4.35;;;1.10;;
60722;SDS011;46574;52.818;6.516;2023-05-16T08:16:06;3.60;;;1.00;;
60722;SDS011;46574;52.818;6.516;2023-05-16T08:18:31;6.25;;;1.42;;
60722;SDS011;46574;52.818;6.516;2023-05-16T08:20:57;4.95;;;1.10;;
60722;SDS011;46574;52.818;6.516;2023-05-16T08:23:23;3.15;;;1.10;;
60722;SDS011;46574;52.818;6.516;2023-05-16T08:25:48;2.55;;;1.23;;
60722;SDS011;46574;52.818;6.516;2023-05-16T08:28:14;6.68;;;1.15;;
60722;SDS011;46574;52.818;6.516;2023-05-16T08:30:40;4.60;;;1.48;;
60722;SDS011;46574;52.818;6.516;2023-05-16T08:33:06;5.22;;;1.25;;
60722;SDS011;46574;52.818;6.516;2023-05-16T08:35:32;5.72;;;1.60;;
60722;SDS011;46574;52.818;6.516;2023-05-16T08:37:59;3.92;;;1.13;;
60722;SDS011;46574;52.818;6.516;2023-05-16T08:40:27;4.63;;;1.50;;
60722;SDS011;46574;52.818;6.516;2023-05-16T08:42:52;3.83;;;1.20;;
60722;SDS011;46574;52.818;6.516;2023-05-16T08:45:18;5.22;;;1.70;;
60722;SDS011;46574;52.818;6.516;2023-05-16T08:47:44;5.13;;;1.20;;
60722;SDS011;46574;52.818;6.516;2023-05-16T08:50:14;5.85;;;1.35;;
60722;SDS011;46574;52.818;6.516;2023-05-16T08:52:41;5.82;;;0.98;;
60722;SDS011;46574;52.818;6.516;2023-05-16T08:55:08;2.65;;;1.05;;
60722;SDS011;46574;52.818;6.516;2023-05-16T08:57:34;3.95;;;1.92;;
60722;SDS011;46574;52.818;6.516;2023-05-16T09:00:00;4.82;;;1.30;;
60722;SDS011;46574;52.818;6.516;2023-05-16T09:02:35;3.92;;;1.00;;
60722;SDS011;46574;52.818;6.516;2023-05-16T09:05:02;4.75;;;1.40;;
60722;SDS011;46574;52.818;6.516;2023-05-16T09:07:29;6.15;;;1.30;;
60722;SDS011;46574;52.818;6.516;2023-05-16T09:09:55;3.42;;;1.38;;
60722;SDS011;46574;52.818;6.516;2023-05-16T09:12:21;5.57;;;1.30;;
60722;SDS011;46574;52.818;6.516;2023-05-16T09:14:46;5.40;;;1.30;;
60722;SDS011;46574;52.818;6.516;2023-05-16T09:17:12;4.22;;;1.10;;
60722;SDS011;46574;52.818;6.516;2023-05-16T09:19:40;7.70;;;1.63;;
60722;SDS011;46574;52.818;6.516;2023-05-16T09:22:11;5.63;;;1.45;;
60722;SDS011;46574;52.818;6.516;2023-05-16T09:24:41;5.13;;;1.42;;
60722;SDS011;46574;52.818;6.516;2023-05-16T09:27:09;4.05;;;1.05;;
60722;SDS011;46574;52.818;6.516;2023-05-16T09:29:39;4.72;;;1.40;;
60722;SDS011;46574;52.818;6.516;2023-05-16T09:32:14;3.40;;;1.13;;
60722;SDS011;46574;52.818;6.516;2023-05-16T09:34:44;3.50;;;1.17;;
60722;SDS011;46574;52.818;6.516;2023-05-16T09:37:13;4.15;;;1.13;;
60722;SDS011;46574;52.818;6.516;2023-05-16T09:39:47;2.95;;;0.93;;
60722;SDS011;46574;52.818;6.516;2023-05-16T09:42:15;4.28;;;1.27;;
60722;SDS011;46574;52.818;6.516;2023-05-16T09:44:45;4.03;;;1.10;;
60722;SDS011;46574;52.818;6.516;2023-05-16T09:47:14;5.20;;;1.85;;
60722;SDS011;46574;52.818;6.516;2023-05-16T09:49:45;3.83;;;1.15;;
60722;SDS011;46574;52.818;6.516;2023-05-16T09:52:13;5.20;;;1.55;;
60722;SDS011;46574;52.818;6.516;2023-05-16T09:54:39;4.35;;;1.48;;
60722;SDS011;46574;52.818;6.516;2023-05-16T09:57:05;4.93;;;1.20;;
60722;SDS011;46574;52.818;6.516;2023-05-16T09:59:37;4.38;;;1.20;;
60722;SDS011;46574;52.818;6.516;2023-05-16T10:02:07;5.85;;;1.50;;
60722;SDS011;46574;52.818;6.516;2023-05-16T10:04:33;4.40;;;1.10;;
60722;SDS011;46574;52.818;6.516;2023-05-16T10:07:01;7.63;;;1.25;;
60722;SDS011;46574;52.818;6.516;2023-05-16T10:09:28;4.20;;;0.93;;
60722;SDS011;46574;52.818;6.516;2023-05-16T10:11:57;3.28;;;1.15;;
60722;SDS011;46574;52.818;6.516;2023-05-16T10:14:27;6.63;;;1.50;;
60722;SDS011;46574;52.818;6.516;2023-05-16T10:16:53;4.18;;;1.25;;
60722;SDS011;46574;52.818;6.516;2023-05-16T10:19:21;3.72;;;1.33;;
60722;SDS011;46574;52.818;6.516;2023-05-16T10:21:50;3.97;;;1.02;;
60722;SDS011;46574;52.818;6.516;2023-05-16T10:24:25;5.00;;;1.00;;
60722;SDS011;46574;52.818;6.516;2023-05-16T10:26:55;6.63;;;1.10;;
60722;SDS011;46574;52.818;6.516;2023-05-16T10:29:21;5.22;;;1.50;;
60722;SDS011;46574;52.818;6.516;2023-05-16T10:31:48;5.45;;;1.08;;
60722;SDS011;46574;52.818;6.516;2023-05-16T10:34:15;5.18;;;1.05;;
60722;SDS011;46574;52.818;6.516;2023-05-16T10:36:42;3.47;;;1.10;;
60722;SDS011;46574;52.818;6.516;2023-05-16T10:39:09;6.32;;;1.30;;
60722;SDS011;46574;52.818;6.516;2023-05-16T10:41:36;4.13;;;1.20;;
60722;SDS011;46574;52.818;6.516;2023-05-16T10:44:02;4.38;;;1.15;;
60722;SDS011;46574;52.818;6.516;2023-05-16T10:46:28;4.68;;;1.20;;
60722;SDS011;46574;52.818;6.516;2023-05-16T10:48:56;4.05;;;1.13;;
60722;SDS011;46574;52.818;6.516;2023-05-16T10:53:50;4.75;;;0.98;;
60722;SDS011;46574;52.818;6.516;2023-05-16T10:56:21;5.85;;;1.20;;
60722;SDS011;46574;52.818;6.516;2023-05-16T10:58:47;5.43;;;0.90;;
60722;SDS011;46574;52.818;6.516;2023-05-16T11:01:33;3.45;;;1.00;;
60722;SDS011;46574;52.818;6.516;2023-05-16T11:04:03;5.90;;;1.38;;
60722;SDS011;46574;52.818;6.516;2023-05-16T11:06:31;4.30;;;1.20;;
60722;SDS011;46574;52.818;6.516;2023-05-16T11:11:42;3.03;;;0.82;;
60722;SDS011;46574;52.818;6.516;2023-05-16T11:14:16;1.73;;;0.80;;
60722;SDS011;46574;52.818;6.516;2023-05-16T11:17:00;2.97;;;0.95;;
60722;SDS011;46574;52.818;6.516;2023-05-16T11:19:50;5.73;;;1.57;;
60722;SDS011;46574;52.818;6.516;2023-05-16T11:24:55;2.53;;;1.25;;
60722;SDS011;46574;52.818;6.516;2023-05-16T11:27:30;3.63;;;1.40;;
60722;SDS011;46574;52.818;6.516;2023-05-16T11:30:18;5.00;;;1.77;;
60722;SDS011;46574;52.818;6.516;2023-05-16T11:32:45;8.50;;;1.73;;
60722;SDS011;46574;52.818;6.516;2023-05-16T11:35:11;3.92;;;1.20;;
60722;SDS011;46574;52.818;6.516;2023-05-16T11:37:39;6.15;;;1.42;;
60722;SDS011;46574;52.818;6.516;2023-05-16T11:40:05;3.75;;;1.30;;
60722;SDS011;46574;52.818;6.516;2023-05-16T11:42:34;3.90;;;1.55;;
60722;SDS011;46574;52.818;6.516;2023-05-16T11:45:08;6.35;;;1.77;;
60722;SDS011;46574;52.818;6.516;2023-05-16T11:47:45;6.65;;;1.80;;
60722;SDS011;46574;52.818;6.516;2023-05-16T11:50:19;4.43;;;1.30;;
60722;SDS011;46574;52.818;6.516;2023-05-16T11:52:48;5.65;;;1.40;;
60722;SDS011;46574;52.818;6.516;2023-05-16T11:55:18;6.38;;;1.80;;
60722;SDS011;46574;52.818;6.516;2023-05-16T11:57:45;3.83;;;1.60;;
60722;SDS011;46574;52.818;6.516;2023-05-16T12:00:18;4.85;;;1.98;;
60722;SDS011;46574;52.818;6.516;2023-05-16T12:02:50;5.18;;;1.42;;
60722;SDS011;46574;52.818;6.516;2023-05-16T12:05:17;4.20;;;1.70;;
60722;SDS011;46574;52.818;6.516;2023-05-16T12:07:45;4.88;;;1.50;;
60722;SDS011;46574;52.818;6.516;2023-05-16T12:10:14;2.80;;;1.20;;
60722;SDS011;46574;52.818;6.516;2023-05-16T12:12:42;2.80;;;1.58;;
60722;SDS011;46574;52.818;6.516;2023-05-16T12:17:36;3.67;;;1.42;;
60722;SDS011;46574;52.818;6.516;2023-05-16T12:20:03;7.47;;;2.00;;
60722;SDS011;46574;52.818;6.516;2023-05-16T12:22:34;3.92;;;1.70;;
60722;SDS011;46574;52.818;6.516;2023-05-16T12:27:56;4.60;;;1.73;;
60722;SDS011;46574;52.818;6.516;2023-05-16T12:30:23;3.97;;;1.70;;
60722;SDS011;46574;52.818;6.516;2023-05-16T12:33:00;3.85;;;1.50;;
60722;SDS011;46574;52.818;6.516;2023-05-16T12:35:40;4.18;;;1.50;;
60722;SDS011;46574;52.818;6.516;2023-05-16T12:38:08;4.03;;;1.65;;
60722;SDS011;46574;52.818;6.516;2023-05-16T12:40:36;4.05;;;1.80;;
60722;SDS011;46574;52.818;6.516;2023-05-16T12:43:03;4.07;;;1.73;;
60722;SDS011;46574;52.818;6.516;2023-05-16T12:45:36;4.20;;;1.85;;
60722;SDS011;46574;52.818;6.516;2023-05-16T12:48:10;4.40;;;1.80;;
60722;SDS011;46574;52.818;6.516;2023-05-16T12:50:37;3.97;;;1.90;;
60722;SDS011;46574;52.818;6.516;2023-05-16T12:53:04;4.85;;;2.15;;
60722;SDS011;46574;52.818;6.516;2023-05-16T12:55:34;5.22;;;1.85;;
60722;SDS011;46574;52.818;6.516;2023-05-16T12:57:59;4.45;;;2.30;;
60722;SDS011;46574;52.818;6.516;2023-05-16T13:00:25;7.47;;;2.30;;
60722;SDS011;46574;52.818;6.516;2023-05-16T13:02:51;4.47;;;2.05;;
60722;SDS011;46574;52.818;6.516;2023-05-16T13:05:17;3.28;;;1.90;;
60722;SDS011;46574;52.818;6.516;2023-05-16T13:07:42;3.63;;;2.05;;
60722;SDS011;46574;52.818;6.516;2023-05-16T13:10:09;6.07;;;2.70;;
60722;SDS011;46574;52.818;6.516;2023-05-16T13:12:36;3.50;;;2.42;;
60722;SDS011;46574;52.818;6.516;2023-05-16T13:15:05;7.03;;;2.97;;
60722;SDS011;46574;52.818;6.516;2023-05-16T13:17:32;4.55;;;2.25;;
60722;SDS011;46574;52.818;6.516;2023-05-16T13:19:59;6.05;;;3.17;;
60722;SDS011;46574;52.818;6.516;2023-05-16T13:22:25;5.25;;;2.40;;
60722;SDS011;46574;52.818;6.516;2023-05-16T13:24:50;5.75;;;2.78;;
60722;SDS011;46574;52.818;6.516;2023-05-16T13:27:16;6.45;;;2.58;;
60722;SDS011;46574;52.818;6.516;2023-05-16T13:29:42;5.18;;;2.75;;
60722;SDS011;46574;52.818;6.516;2023-05-16T13:32:08;4.85;;;2.67;;
60722;SDS011;46574;52.818;6.516;2023-05-16T13:34:33;7.13;;;2.70;;
60722;SDS011;46574;52.818;6.516;2023-05-16T13:36:59;5.63;;;2.60;;
60722;SDS011;46574;52.818;6.516;2023-05-16T13:39:25;5.95;;;2.83;;
60722;SDS011;46574;52.818;6.516;2023-05-16T13:41:51;5.43;;;2.80;;
60722;SDS011;46574;52.818;6.516;2023-05-16T13:44:17;4.50;;;2.38;;
60722;SDS011;46574;52.818;6.516;2023-05-16T13:46:43;7.75;;;2.92;;
60722;SDS011;46574;52.818;6.516;2023-05-16T13:49:09;5.25;;;2.47;;
60722;SDS011;46574;52.818;6.516;2023-05-16T13:51:35;7.82;;;3.05;;
60722;SDS011;46574;52.818;6.516;2023-05-16T13:54:01;4.65;;;3.10;;
60722;SDS011;46574;52.818;6.516;2023-05-16T13:56:26;6.03;;;3.08;;
60722;SDS011;46574;52.818;6.516;2023-05-16T13:58:52;5.70;;;3.38;;
60722;SDS011;46574;52.818;6.516;2023-05-16T14:01:18;5.68;;;3.00;;
60722;SDS011;46574;52.818;6.516;2023-05-16T14:03:43;6.85;;;3.35;;
60722;SDS011;46574;52.818;6.516;2023-05-16T14:06:09;4.05;;;2.60;;
60722;SDS011;46574;52.818;6.516;2023-05-16T14:08:35;5.32;;;2.90;;
60722;SDS011;46574;52.818;6.516;2023-05-16T14:11:00;4.82;;;2.50;;
60722;SDS011;46574;52.818;6.516;2023-05-16T14:13:27;5.97;;;2.80;;
60722;SDS011;46574;52.818;6.516;2023-05-16T14:15:53;7.97;;;3.05;;
60722;SDS011;46574;52.818;6.516;2023-05-16T14:18:19;5.32;;;3.08;;
60722;SDS011;46574;52.818;6.516;2023-05-16T14:20:44;5.82;;;2.97;;
60722;SDS011;46574;52.818;6.516;2023-05-16T14:23:10;5.93;;;2.88;;
60722;SDS011;46574;52.818;6.516;2023-05-16T14:25:36;5.68;;;3.15;;
60722;SDS011;46574;52.818;6.516;2023-05-16T14:28:01;5.75;;;2.85;;
60722;SDS011;46574;52.818;6.516;2023-05-16T14:30:27;6.70;;;3.15;;
60722;SDS011;46574;52.818;6.516;2023-05-16T14:32:52;7.10;;;3.70;;
60722;SDS011;46574;52.818;6.516;2023-05-16T14:35:18;7.00;;;3.83;;
60722;SDS011;46574;52.818;6.516;2023-05-16T14:37:44;8.27;;;3.83;;
60722;SDS011;46574;52.818;6.516;2023-05-16T14:40:10;7.38;;;4.13;;
60722;SDS011;46574;52.818;6.516;2023-05-16T14:42:36;6.80;;;4.30;;
60722;SDS011;46574;52.818;6.516;2023-05-16T14:45:02;6.53;;;3.80;;
60722;SDS011;46574;52.818;6.516;2023-05-16T14:47:28;7.50;;;4.00;;
60722;SDS011;46574;52.818;6.516;2023-05-16T14:49:55;7.82;;;3.55;;
60722;SDS011;46574;52.818;6.516;2023-05-16T14:52:21;6.55;;;3.75;;
60722;SDS011;46574;52.818;6.516;2023-05-16T14:54:47;6.57;;;2.92;;
60722;SDS011;46574;52.818;6.516;2023-05-16T14:57:13;7.28;;;2.90;;
60722;SDS011;46574;52.818;6.516;2023-05-16T14:59:38;5.53;;;3.03;;
60722;SDS011;46574;52.818;6.516;2023-05-16T15:02:04;5.68;;;2.90;;
60722;SDS011;46574;52.818;6.516;2023-05-16T15:04:30;5.60;;;2.67;;
60722;SDS011;46574;52.818;6.516;2023-05-16T15:06:56;6.03;;;2.50;;
60722;SDS011;46574;52.818;6.516;2023-05-16T15:09:22;5.82;;;2.50;;
60722;SDS011;46574;52.818;6.516;2023-05-16T15:11:48;5.45;;;2.75;;